sensor_id;sensor_type;location;lat;lon;timestamp;P1;durP1;ratioP1;P2;durP2;ratioP2
12776;SDS011;6452;41.572;23.732;2022-12-18T00:01:46;18.75;;;15.27;;
12776;SDS011;6452;41.572;23.732;2022-12-18T00:04:15;15.23;;;13.68;;
12776;SDS011;6452;41.572;23.732;2022-12-18T00:06:41;16.73;;;13.63;;
12776;SDS011;6452;41.572;23.732;2022-12-18T00:09:08;18.65;;;14.18;;
12776;SDS011;6452;41.572;23.732;2022-12-18T00:11:34;19.20;;;16.83;;
12776;SDS011;6452;41.572;23.732;2022-12-18T00:13:59;16.85;;;14.82;;
12776;SDS011;6452;41.572;23.732;2022-12-18T00:16:26;19.40;;;15.63;;
12776;SDS011;6452;41.572;23.732;2022-12-18T00:18:54;17.65;;;15.77;;
12776;SDS011;6452;41.572;23.732;2022-12-18T00:21:21;18.73;;;15.38;;
12776;SDS011;6452;41.572;23.732;2022-12-18T00:23:47;19.88;;;15.88;;
12776;SDS011;6452;41.572;23.732;2022-12-18T00:26:14;17.48;;;14.95;;
12776;SDS011;6452;41.572;23.732;2022-12-18T00:28:41;21.50;;;15.52;;
12776;SDS011;6452;41.572;23.732;2022-12-18T00:31:08;20.85;;;16.80;;
12776;SDS011;6452;41.572;23.732;2022-12-18T00:33:34;21.90;;;17.60;;
12776;SDS011;6452;41.572;23.732;2022-12-18T00:36:08;24.90;;;20.13;;
12776;SDS011;6452;41.572;23.732;2022-12-18T00:38:36;22.35;;;19.02;;
12776;SDS011;6452;41.572;23.732;2022-12-18T00:41:02;24.00;;;19.88;;
12776;SDS011;6452;41.572;23.732;2022-12-18T00:43:28;25.27;;;18.48;;
12776;SDS011;6452;41.572;23.732;2022-12-18T00:45:55;19.10;;;16.40;;
12776;SDS011;6452;41.572;23.732;2022-12-18T00:48:21;18.42;;;15.95;;
12776;SDS011;6452;41.572;23.732;2022-12-18T00:50:48;17.40;;;15.40;;
12776;SDS011;6452;41.572;23.732;2022-12-18T00:53:14;27.23;;;20.60;;
12776;SDS011;6452;41.572;23.732;2022-12-18T00:55:40;22.05;;;16.58;;
12776;SDS011;6452;41.572;23.732;2022-12-18T00:58:06;18.92;;;13.68;;
12776;SDS011;6452;41.572;23.732;2022-12-18T01:00:32;15.60;;;13.30;;
12776;SDS011;6452;41.572;23.732;2022-12-18T01:02:58;20.55;;;14.10;;
12776;SDS011;6452;41.572;23.732;2022-12-18T01:05:25;16.10;;;13.35;;
12776;SDS011;6452;41.572;23.732;2022-12-18T01:07:50;16.17;;;12.68;;
12776;SDS011;6452;41.572;23.732;2022-12-18T01:10:17;13.10;;;11.70;;
12776;SDS011;6452;41.572;23.732;2022-12-18T01:12:42;12.80;;;11.52;;
12776;SDS011;6452;41.572;23.732;2022-12-18T01:15:09;25.95;;;17.35;;
12776;SDS011;6452;41.572;23.732;2022-12-18T01:17:35;26.60;;;18.08;;
12776;SDS011;6452;41.572;23.732;2022-12-18T01:20:01;29.50;;;19.33;;
12776;SDS011;6452;41.572;23.732;2022-12-18T01:22:26;25.27;;;17.88;;
12776;SDS011;6452;41.572;23.732;2022-12-18T01:24:52;19.05;;;15.82;;
12776;SDS011;6452;41.572;23.732;2022-12-18T01:27:22;19.00;;;14.77;;
12776;SDS011;6452;41.572;23.732;2022-12-18T01:29:49;17.23;;;13.18;;
12776;SDS011;6452;41.572;23.732;2022-12-18T01:32:15;17.00;;;12.45;;
12776;SDS011;6452;41.572;23.732;2022-12-18T01:34:41;14.63;;;10.93;;
12776;SDS011;6452;41.572;23.732;2022-12-18T01:37:07;19.05;;;10.93;;
12776;SDS011;6452;41.572;23.732;2022-12-18T01:39:33;13.15;;;11.50;;
12776;SDS011;6452;41.572;23.732;2022-12-18T01:41:59;14.27;;;10.52;;
12776;SDS011;6452;41.572;23.732;2022-12-18T01:47:18;10.48;;;8.65;;
12776;SDS011;6452;41.572;23.732;2022-12-18T01:49:45;9.93;;;8.88;;
12776;SDS011;6452;41.572;23.732;2022-12-18T01:52:12;10.48;;;8.88;;
12776;SDS011;6452;41.572;23.732;2022-12-18T01:54:38;9.70;;;8.55;;
12776;SDS011;6452;41.572;23.732;2022-12-18T01:57:04;16.63;;;9.15;;
12776;SDS011;6452;41.572;23.732;2022-12-18T01:59:31;10.93;;;9.73;;
12776;SDS011;6452;41.572;23.732;2022-12-18T02:01:57;10.32;;;8.73;;
12776;SDS011;6452;41.572;23.732;2022-12-18T02:04:25;9.55;;;8.05;;
12776;SDS011;6452;41.572;23.732;2022-12-18T02:06:56;12.57;;;8.88;;
12776;SDS011;6452;41.572;23.732;2022-12-18T02:09:28;9.13;;;7.18;;
12776;SDS011;6452;41.572;23.732;2022-12-18T02:11:59;8.35;;;7.13;;
12776;SDS011;6452;41.572;23.732;2022-12-18T02:14:40;8.60;;;7.70;;
12776;SDS011;6452;41.572;23.732;2022-12-18T02:17:10;8.45;;;7.03;;
12776;SDS011;6452;41.572;23.732;2022-12-18T02:25:00;10.13;;;9.10;;
12776;SDS011;6452;41.572;23.732;2022-12-18T02:27:30;11.48;;;9.90;;
12776;SDS011;6452;41.572;23.732;2022-12-18T02:30:01;11.13;;;9.93;;
12776;SDS011;6452;41.572;23.732;2022-12-18T02:32:31;10.40;;;9.40;;
12776;SDS011;6452;41.572;23.732;2022-12-18T02:34:58;12.80;;;10.32;;
12776;SDS011;6452;41.572;23.732;2022-12-18T02:37:24;11.85;;;10.00;;
12776;SDS011;6452;41.572;23.732;2022-12-18T02:39:51;10.75;;;8.77;;
12776;SDS011;6452;41.572;23.732;2022-12-18T02:42:18;13.63;;;10.05;;
12776;SDS011;6452;41.572;23.732;2022-12-18T02:44:45;12.52;;;9.38;;
12776;SDS011;6452;41.572;23.732;2022-12-18T02:47:12;11.02;;;9.32;;
12776;SDS011;6452;41.572;23.732;2022-12-18T02:55:14;15.27;;;12.25;;
12776;SDS011;6452;41.572;23.732;2022-12-18T02:57:44;13.68;;;12.15;;
12776;SDS011;6452;41.572;23.732;2022-12-18T03:00:16;14.75;;;11.90;;
12776;SDS011;6452;41.572;23.732;2022-12-18T03:02:48;17.17;;;13.50;;
12776;SDS011;6452;41.572;23.732;2022-12-18T03:05:19;19.52;;;12.95;;
12776;SDS011;6452;41.572;23.732;2022-12-18T03:07:50;17.30;;;12.48;;
12776;SDS011;6452;41.572;23.732;2022-12-18T03:10:23;9.48;;;8.55;;
12776;SDS011;6452;41.572;23.732;2022-12-18T03:12:52;11.93;;;9.93;;
12776;SDS011;6452;41.572;23.732;2022-12-18T03:15:24;13.77;;;9.70;;
12776;SDS011;6452;41.572;23.732;2022-12-18T03:17:54;14.57;;;8.88;;
12776;SDS011;6452;41.572;23.732;2022-12-18T03:20:22;16.02;;;10.95;;
12776;SDS011;6452;41.572;23.732;2022-12-18T03:22:51;15.07;;;10.07;;
12776;SDS011;6452;41.572;23.732;2022-12-18T03:25:18;11.90;;;7.90;;
12776;SDS011;6452;41.572;23.732;2022-12-18T03:27:46;10.73;;;7.85;;
12776;SDS011;6452;41.572;23.732;2022-12-18T03:30:13;12.73;;;6.75;;
12776;SDS011;6452;41.572;23.732;2022-12-18T03:35:29;8.27;;;6.50;;
12776;SDS011;6452;41.572;23.732;2022-12-18T03:38:09;9.40;;;7.50;;
12776;SDS011;6452;41.572;23.732;2022-12-18T03:43:22;10.07;;;7.97;;
12776;SDS011;6452;41.572;23.732;2022-12-18T03:45:55;9.20;;;7.57;;
12776;SDS011;6452;41.572;23.732;2022-12-18T03:48:27;11.82;;;6.47;;
12776;SDS011;6452;41.572;23.732;2022-12-18T03:53:59;9.13;;;5.85;;
12776;SDS011;6452;41.572;23.732;2022-12-18T03:56:27;10.52;;;6.07;;
12776;SDS011;6452;41.572;23.732;2022-12-18T03:58:54;11.60;;;7.15;;
12776;SDS011;6452;41.572;23.732;2022-12-18T04:01:22;11.13;;;7.38;;
12776;SDS011;6452;41.572;23.732;2022-12-18T04:03:49;8.73;;;7.28;;
12776;SDS011;6452;41.572;23.732;2022-12-18T04:06:16;10.40;;;6.85;;
12776;SDS011;6452;41.572;23.732;2022-12-18T04:08:42;8.98;;;7.10;;
12776;SDS011;6452;41.572;23.732;2022-12-18T04:11:09;12.75;;;7.50;;
12776;SDS011;6452;41.572;23.732;2022-12-18T04:13:36;11.57;;;7.93;;
12776;SDS011;6452;41.572;23.732;2022-12-18T04:16:02;7.70;;;7.00;;
12776;SDS011;6452;41.572;23.732;2022-12-18T04:18:28;12.50;;;7.63;;
12776;SDS011;6452;41.572;23.732;2022-12-18T04:20:54;9.00;;;8.20;;
12776;SDS011;6452;41.572;23.732;2022-12-18T04:23:20;7.10;;;6.40;;
12776;SDS011;6452;41.572;23.732;2022-12-18T04:25:47;6.68;;;6.00;;
12776;SDS011;6452;41.572;23.732;2022-12-18T04:28:12;8.40;;;6.00;;
12776;SDS011;6452;41.572;23.732;2022-12-18T04:30:38;12.43;;;6.65;;
12776;SDS011;6452;41.572;23.732;2022-12-18T04:33:08;11.68;;;7.30;;
12776;SDS011;6452;41.572;23.732;2022-12-18T04:35:34;11.85;;;7.75;;
12776;SDS011;6452;41.572;23.732;2022-12-18T04:38:00;10.10;;;7.63;;
12776;SDS011;6452;41.572;23.732;2022-12-18T04:40:26;11.93;;;9.63;;
12776;SDS011;6452;41.572;23.732;2022-12-18T04:42:52;9.93;;;8.93;;
12776;SDS011;6452;41.572;23.732;2022-12-18T04:45:18;10.63;;;9.55;;
12776;SDS011;6452;41.572;23.732;2022-12-18T04:47:45;9.98;;;8.07;;
12776;SDS011;6452;41.572;23.732;2022-12-18T04:50:11;8.27;;;7.45;;
12776;SDS011;6452;41.572;23.732;2022-12-18T04:52:37;9.70;;;7.72;;
12776;SDS011;6452;41.572;23.732;2022-12-18T04:55:03;9.02;;;7.88;;
12776;SDS011;6452;41.572;23.732;2022-12-18T04:57:30;10.27;;;7.68;;
12776;SDS011;6452;41.572;23.732;2022-12-18T04:59:56;10.50;;;8.65;;
12776;SDS011;6452;41.572;23.732;2022-12-18T05:02:22;12.63;;;9.02;;
12776;SDS011;6452;41.572;23.732;2022-12-18T05:04:48;14.50;;;10.48;;
12776;SDS011;6452;41.572;23.732;2022-12-18T05:07:14;12.52;;;10.27;;
12776;SDS011;6452;41.572;23.732;2022-12-18T05:09:40;11.65;;;9.52;;
12776;SDS011;6452;41.572;23.732;2022-12-18T05:12:06;13.35;;;9.52;;
12776;SDS011;6452;41.572;23.732;2022-12-18T05:14:32;12.88;;;9.50;;
12776;SDS011;6452;41.572;23.732;2022-12-18T05:16:58;12.45;;;9.07;;
12776;SDS011;6452;41.572;23.732;2022-12-18T05:19:24;9.77;;;8.50;;
12776;SDS011;6452;41.572;23.732;2022-12-18T05:21:50;10.90;;;7.95;;
12776;SDS011;6452;41.572;23.732;2022-12-18T05:24:16;12.48;;;8.93;;
12776;SDS011;6452;41.572;23.732;2022-12-18T05:26:43;12.30;;;8.88;;
12776;SDS011;6452;41.572;23.732;2022-12-18T05:29:09;10.63;;;9.25;;
12776;SDS011;6452;41.572;23.732;2022-12-18T05:31:38;13.38;;;9.65;;
12776;SDS011;6452;41.572;23.732;2022-12-18T05:34:04;12.95;;;11.57;;
12776;SDS011;6452;41.572;23.732;2022-12-18T05:36:29;13.57;;;11.73;;
12776;SDS011;6452;41.572;23.732;2022-12-18T05:38:56;18.40;;;14.32;;
12776;SDS011;6452;41.572;23.732;2022-12-18T05:41:21;21.52;;;16.13;;
12776;SDS011;6452;41.572;23.732;2022-12-18T05:43:47;22.25;;;17.17;;
12776;SDS011;6452;41.572;23.732;2022-12-18T05:46:15;25.85;;;17.90;;
12776;SDS011;6452;41.572;23.732;2022-12-18T05:48:41;24.85;;;17.02;;
12776;SDS011;6452;41.572;23.732;2022-12-18T05:51:08;23.65;;;17.02;;
12776;SDS011;6452;41.572;23.732;2022-12-18T05:53:36;21.67;;;18.15;;
12776;SDS011;6452;41.572;23.732;2022-12-18T05:56:06;25.27;;;20.08;;
12776;SDS011;6452;41.572;23.732;2022-12-18T05:58:33;30.50;;;22.45;;
12776;SDS011;6452;41.572;23.732;2022-12-18T06:01:05;29.98;;;20.60;;
12776;SDS011;6452;41.572;23.732;2022-12-18T06:03:32;26.20;;;19.13;;
12776;SDS011;6452;41.572;23.732;2022-12-18T06:05:58;21.65;;;16.63;;
12776;SDS011;6452;41.572;23.732;2022-12-18T06:08:24;20.85;;;16.08;;
12776;SDS011;6452;41.572;23.732;2022-12-18T06:10:50;24.65;;;17.48;;
12776;SDS011;6452;41.572;23.732;2022-12-18T06:13:18;21.33;;;15.52;;
12776;SDS011;6452;41.572;23.732;2022-12-18T06:15:43;18.50;;;14.43;;
12776;SDS011;6452;41.572;23.732;2022-12-18T06:18:13;17.20;;;13.60;;
12776;SDS011;6452;41.572;23.732;2022-12-18T06:20:39;23.70;;;17.08;;
12776;SDS011;6452;41.572;23.732;2022-12-18T06:23:06;17.30;;;14.13;;
12776;SDS011;6452;41.572;23.732;2022-12-18T06:25:33;28.08;;;23.80;;
12776;SDS011;6452;41.572;23.732;2022-12-18T06:27:59;20.83;;;17.25;;
12776;SDS011;6452;41.572;23.732;2022-12-18T06:30:26;20.00;;;16.80;;
12776;SDS011;6452;41.572;23.732;2022-12-18T06:32:52;30.45;;;20.77;;
12776;SDS011;6452;41.572;23.732;2022-12-18T06:35:18;24.58;;;19.10;;
12776;SDS011;6452;41.572;23.732;2022-12-18T06:37:44;24.20;;;20.45;;
12776;SDS011;6452;41.572;23.732;2022-12-18T06:40:10;30.35;;;17.63;;
12776;SDS011;6452;41.572;23.732;2022-12-18T06:42:36;19.38;;;14.38;;
12776;SDS011;6452;41.572;23.732;2022-12-18T06:45:02;18.58;;;15.50;;
12776;SDS011;6452;41.572;23.732;2022-12-18T06:47:28;17.73;;;12.38;;
12776;SDS011;6452;41.572;23.732;2022-12-18T06:49:54;16.70;;;13.93;;
12776;SDS011;6452;41.572;23.732;2022-12-18T06:52:20;20.50;;;13.52;;
12776;SDS011;6452;41.572;23.732;2022-12-18T06:54:46;17.13;;;15.32;;
12776;SDS011;6452;41.572;23.732;2022-12-18T06:57:12;21.80;;;16.92;;
12776;SDS011;6452;41.572;23.732;2022-12-18T06:59:38;27.00;;;21.63;;
12776;SDS011;6452;41.572;23.732;2022-12-18T07:02:05;25.77;;;21.55;;
12776;SDS011;6452;41.572;23.732;2022-12-18T07:04:31;29.67;;;21.35;;
12776;SDS011;6452;41.572;23.732;2022-12-18T07:06:57;29.25;;;23.83;;
12776;SDS011;6452;41.572;23.732;2022-12-18T07:09:23;40.92;;;30.40;;
12776;SDS011;6452;41.572;23.732;2022-12-18T07:11:49;38.28;;;31.77;;
12776;SDS011;6452;41.572;23.732;2022-12-18T07:14:15;34.88;;;29.60;;
12776;SDS011;6452;41.572;23.732;2022-12-18T07:16:41;34.95;;;31.00;;
12776;SDS011;6452;41.572;23.732;2022-12-18T07:19:07;30.35;;;26.95;;
12776;SDS011;6452;41.572;23.732;2022-12-18T07:21:34;32.38;;;24.40;;
12776;SDS011;6452;41.572;23.732;2022-12-18T07:24:00;61.80;;;44.00;;
12776;SDS011;6452;41.572;23.732;2022-12-18T07:26:26;44.28;;;35.60;;
12776;SDS011;6452;41.572;23.732;2022-12-18T07:28:54;32.25;;;27.48;;
12776;SDS011;6452;41.572;23.732;2022-12-18T07:31:20;32.30;;;24.48;;
12776;SDS011;6452;41.572;23.732;2022-12-18T07:33:47;34.35;;;27.27;;
12776;SDS011;6452;41.572;23.732;2022-12-18T07:36:13;37.55;;;29.38;;
12776;SDS011;6452;41.572;23.732;2022-12-18T07:38:40;37.45;;;29.30;;
12776;SDS011;6452;41.572;23.732;2022-12-18T07:41:10;35.83;;;29.15;;
12776;SDS011;6452;41.572;23.732;2022-12-18T07:43:36;38.83;;;29.73;;
12776;SDS011;6452;41.572;23.732;2022-12-18T07:46:02;38.70;;;30.25;;
12776;SDS011;6452;41.572;23.732;2022-12-18T07:48:28;112.50;;;71.88;;
12776;SDS011;6452;41.572;23.732;2022-12-18T07:51:00;69.10;;;47.72;;
12776;SDS011;6452;41.572;23.732;2022-12-18T07:53:27;34.60;;;25.45;;
12776;SDS011;6452;41.572;23.732;2022-12-18T07:56:00;37.55;;;28.58;;
12776;SDS011;6452;41.572;23.732;2022-12-18T07:58:26;42.40;;;33.30;;
12776;SDS011;6452;41.572;23.732;2022-12-18T08:00:52;44.67;;;32.17;;
12776;SDS011;6452;41.572;23.732;2022-12-18T08:03:18;55.47;;;40.33;;
12776;SDS011;6452;41.572;23.732;2022-12-18T08:05:44;45.42;;;32.05;;
12776;SDS011;6452;41.572;23.732;2022-12-18T08:08:10;29.67;;;22.45;;
12776;SDS011;6452;41.572;23.732;2022-12-18T08:10:35;27.83;;;23.33;;
12776;SDS011;6452;41.572;23.732;2022-12-18T08:13:02;20.17;;;17.13;;
12776;SDS011;6452;41.572;23.732;2022-12-18T08:15:28;21.58;;;16.75;;
12776;SDS011;6452;41.572;23.732;2022-12-18T08:17:57;18.70;;;15.23;;
12776;SDS011;6452;41.572;23.732;2022-12-18T08:20:23;36.50;;;26.02;;
12776;SDS011;6452;41.572;23.732;2022-12-18T08:22:49;20.17;;;15.75;;
12776;SDS011;6452;41.572;23.732;2022-12-18T08:25:15;20.63;;;16.30;;
12776;SDS011;6452;41.572;23.732;2022-12-18T08:27:41;16.60;;;12.60;;
12776;SDS011;6452;41.572;23.732;2022-12-18T08:30:08;15.63;;;13.02;;
12776;SDS011;6452;41.572;23.732;2022-12-18T08:32:36;15.70;;;13.15;;
12776;SDS011;6452;41.572;23.732;2022-12-18T08:35:02;23.42;;;19.25;;
12776;SDS011;6452;41.572;23.732;2022-12-18T08:37:29;25.45;;;18.98;;
12776;SDS011;6452;41.572;23.732;2022-12-18T08:39:55;20.38;;;15.10;;
12776;SDS011;6452;41.572;23.732;2022-12-18T08:42:21;15.98;;;11.23;;
12776;SDS011;6452;41.572;23.732;2022-12-18T08:45:06;28.95;;;20.02;;
12776;SDS011;6452;41.572;23.732;2022-12-18T08:47:33;13.18;;;10.00;;
12776;SDS011;6452;41.572;23.732;2022-12-18T08:49:59;10.00;;;8.48;;
12776;SDS011;6452;41.572;23.732;2022-12-18T08:52:25;11.05;;;10.00;;
12776;SDS011;6452;41.572;23.732;2022-12-18T08:54:51;11.52;;;9.70;;
12776;SDS011;6452;41.572;23.732;2022-12-18T08:57:17;10.93;;;9.27;;
12776;SDS011;6452;41.572;23.732;2022-12-18T08:59:43;9.68;;;8.65;;
12776;SDS011;6452;41.572;23.732;2022-12-18T09:02:10;11.57;;;9.30;;
12776;SDS011;6452;41.572;23.732;2022-12-18T09:04:36;9.57;;;8.13;;
12776;SDS011;6452;41.572;23.732;2022-12-18T09:07:02;11.20;;;8.23;;
12776;SDS011;6452;41.572;23.732;2022-12-18T09:09:29;10.48;;;8.77;;
12776;SDS011;6452;41.572;23.732;2022-12-18T09:11:55;11.90;;;8.90;;
12776;SDS011;6452;41.572;23.732;2022-12-18T09:14:21;11.50;;;10.30;;
12776;SDS011;6452;41.572;23.732;2022-12-18T09:16:47;11.73;;;10.35;;
12776;SDS011;6452;41.572;23.732;2022-12-18T09:19:13;13.02;;;9.88;;
12776;SDS011;6452;41.572;23.732;2022-12-18T09:21:39;10.80;;;8.65;;
12776;SDS011;6452;41.572;23.732;2022-12-18T09:24:05;8.25;;;7.05;;
12776;SDS011;6452;41.572;23.732;2022-12-18T09:26:31;7.85;;;7.13;;
12776;SDS011;6452;41.572;23.732;2022-12-18T09:28:57;7.30;;;6.60;;
12776;SDS011;6452;41.572;23.732;2022-12-18T09:31:23;8.00;;;6.85;;
12776;SDS011;6452;41.572;23.732;2022-12-18T09:33:50;8.60;;;6.93;;
12776;SDS011;6452;41.572;23.732;2022-12-18T09:36:16;8.23;;;5.90;;
12776;SDS011;6452;41.572;23.732;2022-12-18T09:38:43;7.55;;;6.65;;
12776;SDS011;6452;41.572;23.732;2022-12-18T09:43:45;7.95;;;7.07;;
12776;SDS011;6452;41.572;23.732;2022-12-18T09:46:16;6.25;;;5.55;;
12776;SDS011;6452;41.572;23.732;2022-12-18T09:48:47;12.27;;;8.60;;
12776;SDS011;6452;41.572;23.732;2022-12-18T09:51:33;7.75;;;6.30;;
12776;SDS011;6452;41.572;23.732;2022-12-18T09:54:03;8.43;;;7.03;;
12776;SDS011;6452;41.572;23.732;2022-12-18T09:56:31;16.05;;;11.57;;
12776;SDS011;6452;41.572;23.732;2022-12-18T09:59:01;10.80;;;9.27;;
12776;SDS011;6452;41.572;23.732;2022-12-18T10:01:32;10.57;;;8.25;;
12776;SDS011;6452;41.572;23.732;2022-12-18T10:03:57;8.65;;;6.72;;
12776;SDS011;6452;41.572;23.732;2022-12-18T10:06:26;7.43;;;6.65;;
12776;SDS011;6452;41.572;23.732;2022-12-18T10:09:15;8.30;;;6.68;;
12776;SDS011;6452;41.572;23.732;2022-12-18T10:12:06;7.90;;;6.80;;
12776;SDS011;6452;41.572;23.732;2022-12-18T10:14:36;7.18;;;6.57;;
12776;SDS011;6452;41.572;23.732;2022-12-18T10:19:52;6.90;;;6.20;;
12776;SDS011;6452;41.572;23.732;2022-12-18T10:22:34;6.50;;;5.22;;
12776;SDS011;6452;41.572;23.732;2022-12-18T10:25:20;9.40;;;6.53;;
12776;SDS011;6452;41.572;23.732;2022-12-18T10:28:07;9.70;;;6.22;;
12776;SDS011;6452;41.572;23.732;2022-12-18T10:30:35;7.13;;;6.43;;
12776;SDS011;6452;41.572;23.732;2022-12-18T10:33:03;9.35;;;6.60;;
12776;SDS011;6452;41.572;23.732;2022-12-18T10:35:29;5.85;;;5.35;;
12776;SDS011;6452;41.572;23.732;2022-12-18T10:38:06;6.28;;;5.68;;
12776;SDS011;6452;41.572;23.732;2022-12-18T10:40:34;8.05;;;6.80;;
12776;SDS011;6452;41.572;23.732;2022-12-18T10:43:13;6.38;;;5.78;;
12776;SDS011;6452;41.572;23.732;2022-12-18T10:45:40;6.55;;;5.93;;
12776;SDS011;6452;41.572;23.732;2022-12-18T10:48:19;9.35;;;8.35;;
12776;SDS011;6452;41.572;23.732;2022-12-18T10:50:46;11.88;;;10.50;;
12776;SDS011;6452;41.572;23.732;2022-12-18T10:53:13;7.45;;;6.70;;
12776;SDS011;6452;41.572;23.732;2022-12-18T10:55:44;10.02;;;5.90;;
12776;SDS011;6452;41.572;23.732;2022-12-18T10:58:32;8.68;;;7.13;;
12776;SDS011;6452;41.572;23.732;2022-12-18T11:01:14;10.85;;;6.90;;
12776;SDS011;6452;41.572;23.732;2022-12-18T11:03:59;9.10;;;7.97;;
12776;SDS011;6452;41.572;23.732;2022-12-18T11:06:28;12.55;;;10.45;;
12776;SDS011;6452;41.572;23.732;2022-12-18T11:11:23;10.52;;;8.25;;
12776;SDS011;6452;41.572;23.732;2022-12-18T11:14:03;8.65;;;7.75;;
12776;SDS011;6452;41.572;23.732;2022-12-18T11:16:33;9.60;;;7.80;;
12776;SDS011;6452;41.572;23.732;2022-12-18T11:19:11;11.90;;;6.70;;
12776;SDS011;6452;41.572;23.732;2022-12-18T11:21:39;9.77;;;7.00;;
12776;SDS011;6452;41.572;23.732;2022-12-18T11:24:18;8.63;;;6.25;;
12776;SDS011;6452;41.572;23.732;2022-12-18T11:26:45;10.02;;;7.95;;
12776;SDS011;6452;41.572;23.732;2022-12-18T11:29:16;7.72;;;6.38;;
12776;SDS011;6452;41.572;23.732;2022-12-18T11:31:42;13.75;;;11.85;;
12776;SDS011;6452;41.572;23.732;2022-12-18T11:36:46;47.35;;;34.65;;
12776;SDS011;6452;41.572;23.732;2022-12-18T11:41:52;14.85;;;12.20;;
12776;SDS011;6452;41.572;23.732;2022-12-18T11:44:48;10.43;;;9.15;;
12776;SDS011;6452;41.572;23.732;2022-12-18T11:50:03;10.23;;;8.70;;
12776;SDS011;6452;41.572;23.732;2022-12-18T11:52:47;17.58;;;14.98;;
12776;SDS011;6452;41.572;23.732;2022-12-18T11:55:14;12.50;;;10.40;;
12776;SDS011;6452;41.572;23.732;2022-12-18T11:57:44;12.10;;;10.40;;
12776;SDS011;6452;41.572;23.732;2022-12-18T12:00:18;10.43;;;9.10;;
12776;SDS011;6452;41.572;23.732;2022-12-18T12:03:02;8.60;;;7.75;;
12776;SDS011;6452;41.572;23.732;2022-12-18T12:10:57;55.13;;;37.95;;
12776;SDS011;6452;41.572;23.732;2022-12-18T12:13:33;22.27;;;15.98;;
12776;SDS011;6452;41.572;23.732;2022-12-18T12:29:20;14.38;;;9.38;;
12776;SDS011;6452;41.572;23.732;2022-12-18T12:36:13;10.88;;;9.77;;
12776;SDS011;6452;41.572;23.732;2022-12-18T12:38:49;15.52;;;14.00;;
12776;SDS011;6452;41.572;23.732;2022-12-18T12:41:31;10.70;;;9.60;;
12776;SDS011;6452;41.572;23.732;2022-12-18T12:44:18;16.77;;;11.63;;
12776;SDS011;6452;41.572;23.732;2022-12-18T12:46:45;19.65;;;15.60;;
12776;SDS011;6452;41.572;23.732;2022-12-18T12:49:16;18.20;;;12.55;;
12776;SDS011;6452;41.572;23.732;2022-12-18T12:51:44;12.90;;;10.38;;
12776;SDS011;6452;41.572;23.732;2022-12-18T12:54:15;12.65;;;10.98;;
12776;SDS011;6452;41.572;23.732;2022-12-18T12:56:44;11.82;;;10.02;;
12776;SDS011;6452;41.572;23.732;2022-12-18T13:07:00;15.87;;;11.67;;
12776;SDS011;6452;41.572;23.732;2022-12-18T13:09:31;13.45;;;9.50;;
12776;SDS011;6452;41.572;23.732;2022-12-18T13:12:04;11.52;;;9.55;;
12776;SDS011;6452;41.572;23.732;2022-12-18T13:14:49;17.85;;;12.32;;
12776;SDS011;6452;41.572;23.732;2022-12-18T13:19:48;18.08;;;10.75;;
12776;SDS011;6452;41.572;23.732;2022-12-18T13:22:25;39.47;;;21.90;;
12776;SDS011;6452;41.572;23.732;2022-12-18T13:24:53;16.70;;;12.00;;
12776;SDS011;6452;41.572;23.732;2022-12-18T13:27:45;13.70;;;10.63;;
12776;SDS011;6452;41.572;23.732;2022-12-18T13:35:41;11.05;;;9.15;;
12776;SDS011;6452;41.572;23.732;2022-12-18T13:46:27;9.88;;;8.45;;
12776;SDS011;6452;41.572;23.732;2022-12-18T13:48:36;15.82;;;9.98;;
12776;SDS011;6452;41.572;23.732;2022-12-18T13:56:21;13.95;;;9.00;;
12776;SDS011;6452;41.572;23.732;2022-12-18T13:59:02;12.00;;;9.80;;
12776;SDS011;6452;41.572;23.732;2022-12-18T14:01:28;11.90;;;9.68;;
12776;SDS011;6452;41.572;23.732;2022-12-18T14:07:01;11.35;;;8.63;;
12776;SDS011;6452;41.572;23.732;2022-12-18T14:09:29;13.80;;;10.20;;
12776;SDS011;6452;41.572;23.732;2022-12-18T14:12:15;51.10;;;28.13;;
12776;SDS011;6452;41.572;23.732;2022-12-18T14:15:28;11.38;;;9.57;;
12776;SDS011;6452;41.572;23.732;2022-12-18T14:18:00;10.15;;;7.68;;
12776;SDS011;6452;41.572;23.732;2022-12-18T14:20:27;11.68;;;8.15;;
12776;SDS011;6452;41.572;23.732;2022-12-18T14:25:50;10.68;;;9.57;;
12776;SDS011;6452;41.572;23.732;2022-12-18T14:28:43;9.20;;;8.10;;
12776;SDS011;6452;41.572;23.732;2022-12-18T14:31:16;10.25;;;9.05;;
12776;SDS011;6452;41.572;23.732;2022-12-18T14:33:55;13.20;;;11.75;;
12776;SDS011;6452;41.572;23.732;2022-12-18T14:36:22;11.20;;;8.65;;
12776;SDS011;6452;41.572;23.732;2022-12-18T14:39:13;11.80;;;8.63;;
12776;SDS011;6452;41.572;23.732;2022-12-18T14:41:42;10.95;;;8.25;;
12776;SDS011;6452;41.572;23.732;2022-12-18T14:44:27;13.65;;;10.65;;
12776;SDS011;6452;41.572;23.732;2022-12-18T14:47:14;15.40;;;11.82;;
12776;SDS011;6452;41.572;23.732;2022-12-18T14:49:40;16.17;;;11.43;;
12776;SDS011;6452;41.572;23.732;2022-12-18T14:52:25;10.98;;;9.85;;
12776;SDS011;6452;41.572;23.732;2022-12-18T14:54:52;11.23;;;9.25;;
12776;SDS011;6452;41.572;23.732;2022-12-18T14:57:25;10.60;;;8.98;;
12776;SDS011;6452;41.572;23.732;2022-12-18T14:59:53;11.65;;;10.40;;
12776;SDS011;6452;41.572;23.732;2022-12-18T15:02:22;17.67;;;12.38;;
12776;SDS011;6452;41.572;23.732;2022-12-18T15:04:59;16.92;;;11.88;;
12776;SDS011;6452;41.572;23.732;2022-12-18T15:07:44;24.58;;;19.58;;
12776;SDS011;6452;41.572;23.732;2022-12-18T15:10:20;16.15;;;13.05;;
12776;SDS011;6452;41.572;23.732;2022-12-18T15:17:57;10.02;;;9.02;;
12776;SDS011;6452;41.572;23.732;2022-12-18T15:20:23;11.68;;;9.02;;
12776;SDS011;6452;41.572;23.732;2022-12-18T15:22:49;11.48;;;9.38;;
12776;SDS011;6452;41.572;23.732;2022-12-18T15:25:27;13.32;;;11.15;;
12776;SDS011;6452;41.572;23.732;2022-12-18T15:27:55;12.50;;;10.50;;
12776;SDS011;6452;41.572;23.732;2022-12-18T15:30:25;12.95;;;10.07;;
12776;SDS011;6452;41.572;23.732;2022-12-18T15:32:52;14.32;;;10.73;;
12776;SDS011;6452;41.572;23.732;2022-12-18T15:35:19;10.05;;;9.05;;
12776;SDS011;6452;41.572;23.732;2022-12-18T15:37:45;17.30;;;10.95;;
12776;SDS011;6452;41.572;23.732;2022-12-18T15:40:12;14.68;;;10.25;;
12776;SDS011;6452;41.572;23.732;2022-12-18T15:42:38;10.88;;;9.52;;
12776;SDS011;6452;41.572;23.732;2022-12-18T15:45:23;11.30;;;9.27;;
12776;SDS011;6452;41.572;23.732;2022-12-18T15:47:49;11.00;;;9.80;;
12776;SDS011;6452;41.572;23.732;2022-12-18T15:50:15;10.40;;;9.30;;
12776;SDS011;6452;41.572;23.732;2022-12-18T15:52:42;11.60;;;9.85;;
12776;SDS011;6452;41.572;23.732;2022-12-18T15:55:12;11.93;;;9.75;;
12776;SDS011;6452;41.572;23.732;2022-12-18T15:57:56;10.63;;;9.52;;
12776;SDS011;6452;41.572;23.732;2022-12-18T16:00:23;12.32;;;10.70;;
12776;SDS011;6452;41.572;23.732;2022-12-18T16:02:49;13.20;;;10.90;;
12776;SDS011;6452;41.572;23.732;2022-12-18T16:05:15;10.85;;;9.73;;
12776;SDS011;6452;41.572;23.732;2022-12-18T16:07:42;14.10;;;12.60;;
12776;SDS011;6452;41.572;23.732;2022-12-18T16:10:09;17.17;;;15.27;;
12776;SDS011;6452;41.572;23.732;2022-12-18T16:12:35;16.02;;;14.32;;
12776;SDS011;6452;41.572;23.732;2022-12-18T16:15:01;19.33;;;16.13;;
12776;SDS011;6452;41.572;23.732;2022-12-18T16:17:27;18.55;;;13.80;;
12776;SDS011;6452;41.572;23.732;2022-12-18T16:19:53;16.83;;;11.45;;
12776;SDS011;6452;41.572;23.732;2022-12-18T16:22:24;11.68;;;9.98;;
12776;SDS011;6452;41.572;23.732;2022-12-18T16:25:05;11.63;;;10.40;;